Time;durP1;ratioP1;P1;durP2;ratioP2;P2;SDS_P1;SDS_P2;PMS_P1;PMS_P2;Temp;Humidity;BMP_temperature;BMP_pressure;BME280_temperature;BME280_humidity;BME280_pressure;Samples;Min_cycle;Max_cycle;Signal;HPM_P1;HPM_P2
2022/04/22 00:01:30;;;;;;;8.70;7.37;;;;;;;;;;5054415;28;20230;-83
2022/04/22 00:03:57;;;;;;;8.47;7.37;;;;;;;;;;5055669;28;20217;-83
2022/04/22 00:06:25;;;;;;;8.70;7.77;;;;;;;;;;5055037;28;20245;-83
2022/04/22 00:08:52;;;;;;;8.50;7.60;;;;;;;;;;5054849;28;20213;-83
2022/04/22 00:11:31;;;;;;;9.80;7.73;;;;;;;;;;5042066;28;20226;-83
2022/04/22 00:13:58;;;;;;;11.23;7.80;;;;;;;;;;5035968;28;20198;-83
2022/04/22 00:16:26;;;;;;;10.03;7.47;;;;;;;;;;5047864;28;20279;-83
2022/04/22 00:18:54;;;;;;;10.00;8.07;;;;;;;;;;5055958;28;20245;-83
2022/04/22 00:21:21;;;;;;;10.37;7.60;;;;;;;;;;5042567;28;20234;-83
2022/04/22 00:23:49;;;;;;;9.90;8.00;;;;;;;;;;5037281;28;20214;-83
2022/04/22 00:26:16;;;;;;;10.03;7.87;;;;;;;;;;5034549;28;20231;-83
2022/04/22 00:28:43;;;;;;;10.40;8.80;;;;;;;;;;5035362;28;20207;-83
2022/04/22 00:31:10;;;;;;;9.60;8.33;;;;;;;;;;5034425;28;20598;-83
2022/04/22 00:33:37;;;;;;;12.77;9.10;;;;;;;;;;5035079;28;20214;-83
2022/04/22 00:36:06;;;;;;;11.67;8.80;;;;;;;;;;5048418;28;20245;-83
2022/04/22 00:38:34;;;;;;;13.40;9.63;;;;;;;;;;5054738;28;20193;-83
2022/04/22 00:41:01;;;;;;;11.00;8.83;;;;;;;;;;5043615;28;20227;-83
2022/04/22 00:43:28;;;;;;;9.70;8.23;;;;;;;;;;5045126;28;20209;-83
2022/04/22 00:45:56;;;;;;;10.97;7.93;;;;;;;;;;5054011;28;20230;-83
2022/04/22 00:48:23;;;;;;;8.80;7.70;;;;;;;;;;5049779;28;20209;-84
2022/04/22 00:50:51;;;;;;;9.90;8.00;;;;;;;;;;5052993;28;20229;-83
2022/04/22 00:53:19;;;;;;;10.97;8.03;;;;;;;;;;5054921;28;20313;-83
2022/04/22 00:55:47;;;;;;;10.00;7.50;;;;;;;;;;5045969;28;20226;-83
2022/04/22 00:58:14;;;;;;;9.30;7.30;;;;;;;;;;5034664;28;20276;-83
2022/04/22 01:00:41;;;;;;;10.47;7.93;;;;;;;;;;5034277;28;20238;-83
2022/04/22 01:03:08;;;;;;;9.90;7.83;;;;;;;;;;5035286;28;20229;-83
2022/04/22 01:11:07;;;;;;;9.17;7.40;;;;;;;;;;5043046;28;20299;-83
2022/04/22 01:13:34;;;;;;;10.27;7.77;;;;;;;;;;5034418;28;20221;-83
2022/04/22 01:16:01;;;;;;;10.10;7.80;;;;;;;;;;5050305;28;20709;-84
2022/04/22 01:18:28;;;;;;;9.37;7.67;;;;;;;;;;5052056;28;20206;-83
2022/04/22 01:21:01;;;;;;;8.70;7.70;;;;;;;;;;5042027;28;20233;-84
2022/04/22 01:23:29;;;;;;;10.03;8.67;;;;;;;;;;5054973;28;20269;-84
2022/04/22 01:25:57;;;;;;;12.30;8.60;;;;;;;;;;5043606;28;20226;-84
2022/04/22 01:28:24;;;;;;;9.57;8.07;;;;;;;;;;5034078;28;20234;-84
2022/04/22 01:30:55;;;;;;;10.37;8.23;;;;;;;;;;5045941;28;20264;-84
2022/04/22 01:33:22;;;;;;;11.70;9.03;;;;;;;;;;5054945;28;20264;-84
2022/04/22 01:35:50;;;;;;;11.07;8.73;;;;;;;;;;5044175;28;20768;-84
2022/04/22 01:38:18;;;;;;;10.03;8.80;;;;;;;;;;5033570;28;20210;-84
2022/04/22 01:40:45;;;;;;;10.53;8.10;;;;;;;;;;5033112;28;20222;-83
2022/04/22 01:43:12;;;;;;;13.07;9.20;;;;;;;;;;5043574;28;20225;-84
2022/04/22 01:45:39;;;;;;;13.43;9.03;;;;;;;;;;5043238;28;20353;-84
2022/04/22 01:48:06;;;;;;;14.40;9.83;;;;;;;;;;5033820;28;20329;-83
2022/04/22 01:50:34;;;;;;;12.30;9.80;;;;;;;;;;5032966;28;20649;-84
2022/04/22 01:53:01;;;;;;;11.67;9.90;;;;;;;;;;5050387;28;20248;-84
2022/04/22 01:55:29;;;;;;;16.17;9.93;;;;;;;;;;5041896;28;20234;-83
2022/04/22 01:57:56;;;;;;;18.00;11.33;;;;;;;;;;5034202;28;20207;-84
2022/04/22 02:00:23;;;;;;;13.37;10.20;;;;;;;;;;5042546;28;20236;-84
2022/04/22 02:02:50;;;;;;;15.63;11.23;;;;;;;;;;5054174;28;20226;-83
2022/04/22 02:05:17;;;;;;;16.43;11.17;;;;;;;;;;5051009;28;20634;-84
2022/04/22 02:07:45;;;;;;;13.17;10.97;;;;;;;;;;5033494;28;20225;-83
2022/04/22 02:10:13;;;;;;;19.27;10.67;;;;;;;;;;5045226;28;20230;-84
2022/04/22 02:12:41;;;;;;;17.20;11.57;;;;;;;;;;5053291;28;20233;-84
2022/04/22 02:15:09;;;;;;;14.30;10.93;;;;;;;;;;5054672;28;20241;-84
2022/04/22 02:17:36;;;;;;;16.27;11.83;;;;;;;;;;5062646;28;20210;-84
2022/04/22 02:20:03;;;;;;;16.87;11.03;;;;;;;;;;5069714;28;20233;-84
2022/04/22 02:22:30;;;;;;;19.97;12.40;;;;;;;;;;5053792;28;20219;-84
2022/04/22 02:24:59;;;;;;;15.50;10.97;;;;;;;;;;5037212;28;20225;-83
2022/04/22 02:30:13;;;;;;;15.17;12.17;;;;;;;;;;5047532;28;20240;-83
2022/04/22 02:32:40;;;;;;;17.97;12.07;;;;;;;;;;5044739;28;20233;-84
2022/04/22 02:35:08;;;;;;;14.47;12.07;;;;;;;;;;5055212;28;20233;-83
2022/04/22 02:37:35;;;;;;;17.13;12.83;;;;;;;;;;5055574;28;20677;-84
2022/04/22 02:40:02;;;;;;;16.87;12.47;;;;;;;;;;5052399;28;20236;-83
2022/04/22 02:45:27;;;;;;;18.63;11.83;;;;;;;;;;5053055;28;20344;-83
2022/04/22 02:47:55;;;;;;;15.70;11.00;;;;;;;;;;5053352;28;20194;-83
2022/04/22 02:50:22;;;;;;;13.87;11.10;;;;;;;;;;5034383;28;20230;-84
2022/04/22 02:52:49;;;;;;;15.53;11.07;;;;;;;;;;5033081;28;20599;-83
2022/04/22 02:55:16;;;;;;;15.43;10.70;;;;;;;;;;5051053;28;20714;-83
2022/04/22 02:57:44;;;;;;;22.83;12.53;;;;;;;;;;5053279;28;20221;-84
2022/04/22 03:00:12;;;;;;;19.63;12.73;;;;;;;;;;5055713;28;20234;-84
2022/04/22 03:02:42;;;;;;;21.93;12.77;;;;;;;;;;5038419;28;20226;-84
2022/04/22 03:05:09;;;;;;;16.80;12.23;;;;;;;;;;5032671;28;20235;-83
2022/04/22 03:07:37;;;;;;;17.00;11.90;;;;;;;;;;5033441;28;20210;-84
2022/04/22 03:10:04;;;;;;;17.20;11.77;;;;;;;;;;5035000;28;20252;-83
2022/04/22 03:12:31;;;;;;;18.30;12.70;;;;;;;;;;5053112;28;20232;-83
2022/04/22 03:14:58;;;;;;;17.30;11.80;;;;;;;;;;5049539;28;20725;-83
2022/04/22 03:17:25;;;;;;;18.40;12.90;;;;;;;;;;5057278;28;20226;-83
2022/04/22 03:19:54;;;;;;;18.23;12.50;;;;;;;;;;5052815;28;20320;-83
2022/04/22 03:22:21;;;;;;;17.93;12.30;;;;;;;;;;5041584;28;20210;-84
2022/04/22 03:24:48;;;;;;;18.20;12.07;;;;;;;;;;5049077;28;20258;-83
2022/04/22 03:27:15;;;;;;;21.83;12.83;;;;;;;;;;5036662;28;20260;-84
2022/04/22 03:29:42;;;;;;;19.10;13.30;;;;;;;;;;5045194;28;20234;-82
2022/04/22 03:32:11;;;;;;;17.77;12.03;;;;;;;;;;5056963;28;20224;-82
2022/04/22 03:34:38;;;;;;;22.87;13.00;;;;;;;;;;5061983;28;20228;-82
2022/04/22 03:37:07;;;;;;;20.40;13.33;;;;;;;;;;5063612;28;20216;-82
2022/04/22 03:39:34;;;;;;;19.37;13.23;;;;;;;;;;5057668;28;20253;-82
2022/04/22 03:42:01;;;;;;;23.63;13.47;;;;;;;;;;5063318;28;20220;-82
2022/04/22 03:44:28;;;;;;;19.03;12.63;;;;;;;;;;5040937;28;20238;-82
2022/04/22 03:46:55;;;;;;;18.60;13.27;;;;;;;;;;5043062;28;20216;-82
2022/04/22 03:49:22;;;;;;;25.90;13.63;;;;;;;;;;5044566;28;20206;-82
2022/04/22 03:51:50;;;;;;;18.13;12.73;;;;;;;;;;5036045;28;20237;-82
2022/04/22 03:54:22;;;;;;;19.63;13.03;;;;;;;;;;5048142;28;20205;-82
2022/04/22 03:59:35;;;;;;;19.33;12.70;;;;;;;;;;5048043;28;20239;-82
2022/04/22 04:02:02;;;;;;;18.40;12.13;;;;;;;;;;5050555;28;20254;-82
2022/04/22 04:04:29;;;;;;;19.47;13.30;;;;;;;;;;5061328;28;20244;-82
2022/04/22 04:06:56;;;;;;;20.53;13.37;;;;;;;;;;5055510;28;20210;-82
2022/04/22 04:17:39;;;;;;;19.33;13.03;;;;;;;;;;5073178;28;20211;-83
2022/04/22 04:25:39;;;;;;;21.40;14.00;;;;;;;;;;5074111;28;20609;-83
2022/04/22 04:28:09;;;;;;;21.90;13.50;;;;;;;;;;5075491;28;20211;-82
2022/04/22 04:30:36;;;;;;;20.27;13.27;;;;;;;;;;5074653;28;20232;-82
2022/04/22 04:33:04;;;;;;;23.93;13.67;;;;;;;;;;5075155;28;20301;-82
2022/04/22 04:35:31;;;;;;;20.67;13.90;;;;;;;;;;5075056;28;20246;-82
2022/04/22 04:37:58;;;;;;;20.80;14.30;;;;;;;;;;5073204;28;20212;-81
2022/04/22 04:40:27;;;;;;;24.80;15.73;;;;;;;;;;5074134;28;20228;-82
2022/04/22 04:42:58;;;;;;;21.97;14.60;;;;;;;;;;5073408;28;20252;-82
2022/04/22 04:45:27;;;;;;;25.30;14.50;;;;;;;;;;5073746;28;20265;-82
2022/04/22 04:47:54;;;;;;;23.87;15.83;;;;;;;;;;5075118;28;20619;-82
2022/04/22 04:50:22;;;;;;;25.40;15.37;;;;;;;;;;5074237;28;20233;-81
2022/04/22 04:52:49;;;;;;;23.27;14.30;;;;;;;;;;5074968;28;20235;-82
2022/04/22 04:55:16;;;;;;;24.70;14.83;;;;;;;;;;5073946;28;20239;-82
2022/04/22 04:57:43;;;;;;;27.20;16.23;;;;;;;;;;5077618;28;20210;-82
2022/04/22 05:00:13;;;;;;;23.27;14.20;;;;;;;;;;5074580;28;20240;-81
2022/04/22 05:02:40;;;;;;;27.17;15.63;;;;;;;;;;5075305;28;20258;-81
2022/04/22 05:05:09;;;;;;;24.70;14.40;;;;;;;;;;5074402;28;20687;-81
2022/04/22 05:07:46;;;;;;;23.83;15.33;;;;;;;;;;5075440;28;20197;-81
2022/04/22 05:10:13;;;;;;;23.90;15.83;;;;;;;;;;5074297;28;20236;-81
2022/04/22 05:12:41;;;;;;;25.97;15.87;;;;;;;;;;5072106;28;20240;-85
2022/04/22 05:15:09;;;;;;;25.67;16.57;;;;;;;;;;5081118;28;20234;-82
2022/04/22 05:17:37;;;;;;;31.13;16.93;;;;;;;;;;5081177;28;20207;-81
2022/04/22 05:20:05;;;;;;;27.23;16.60;;;;;;;;;;5069832;28;20248;-81
2022/04/22 05:22:32;;;;;;;26.47;16.57;;;;;;;;;;5060983;28;20220;-81
2022/04/22 05:24:59;;;;;;;30.73;16.47;;;;;;;;;;5071180;28;20231;-82
2022/04/22 05:27:26;;;;;;;29.40;16.80;;;;;;;;;;5074658;28;20207;-82
2022/04/22 05:32:47;;;;;;;30.67;17.70;;;;;;;;;;5050853;28;20276;-82
2022/04/22 05:35:15;;;;;;;29.17;17.67;;;;;;;;;;5054302;28;20238;-82
2022/04/22 05:37:45;;;;;;;31.63;18.10;;;;;;;;;;5067978;28;20214;-82
2022/04/22 05:40:13;;;;;;;29.63;18.43;;;;;;;;;;5072951;28;20256;-82
2022/04/22 05:42:41;;;;;;;31.63;18.07;;;;;;;;;;5072651;28;20308;-82
2022/04/22 05:45:09;;;;;;;29.13;18.50;;;;;;;;;;5072786;28;20233;-82
2022/04/22 05:47:36;;;;;;;29.03;17.53;;;;;;;;;;5073205;28;20303;-82
2022/04/22 05:50:06;;;;;;;37.33;19.07;;;;;;;;;;5072218;28;20694;-82
2022/04/22 05:52:33;;;;;;;29.97;18.63;;;;;;;;;;5075707;28;20232;-82
2022/04/22 05:55:02;;;;;;;29.90;18.00;;;;;;;;;;5056657;28;20239;-82
2022/04/22 05:57:29;;;;;;;27.20;17.03;;;;;;;;;;5053244;28;20212;-82
2022/04/22 05:59:56;;;;;;;33.90;19.00;;;;;;;;;;5052753;28;20253;-83
2022/04/22 06:02:24;;;;;;;27.97;16.73;;;;;;;;;;5053415;28;20568;-83
2022/04/22 06:04:51;;;;;;;31.60;17.67;;;;;;;;;;5053638;28;20264;-82
2022/04/22 06:07:19;;;;;;;30.47;17.43;;;;;;;;;;5052956;28;20701;-83
2022/04/22 06:12:31;;;;;;;20.87;15.23;;;;;;;;;;5071709;28;20290;-82
2022/04/22 06:14:59;;;;;;;18.87;13.93;;;;;;;;;;5069028;28;20232;-83
2022/04/22 06:17:27;;;;;;;19.27;13.00;;;;;;;;;;5072552;28;20219;-82
2022/04/22 06:19:54;;;;;;;22.70;14.17;;;;;;;;;;5071610;28;20264;-82
2022/04/22 06:22:23;;;;;;;21.60;13.87;;;;;;;;;;5071343;28;20229;-82
2022/04/22 06:24:50;;;;;;;22.37;14.93;;;;;;;;;;5061892;28;20237;-82
2022/04/22 06:27:24;;;;;;;18.37;13.50;;;;;;;;;;5064646;28;20194;-83
2022/04/22 06:29:52;;;;;;;18.13;12.77;;;;;;;;;;5052146;28;20226;-82
2022/04/22 06:32:21;;;;;;;15.67;11.10;;;;;;;;;;5060245;28;20368;-83
2022/04/22 06:34:48;;;;;;;11.83;9.57;;;;;;;;;;5072392;28;20261;-82
2022/04/22 06:37:15;;;;;;;14.07;10.80;;;;;;;;;;5085432;28;20209;-81
2022/04/22 06:48:00;;;;;;;11.13;8.30;;;;;;;;;;5058530;28;20200;-82
2022/04/22 06:50:27;;;;;;;13.07;9.47;;;;;;;;;;5071861;28;20236;-82
2022/04/22 06:52:55;;;;;;;11.80;10.17;;;;;;;;;;5072104;28;20248;-82
2022/04/22 06:55:24;;;;;;;11.87;9.10;;;;;;;;;;5056867;28;20237;-82
2022/04/22 06:57:51;;;;;;;10.87;8.30;;;;;;;;;;5056695;28;20671;-83
2022/04/22 07:00:19;;;;;;;12.07;8.47;;;;;;;;;;5058926;28;20233;-81
2022/04/22 07:02:46;;;;;;;11.83;9.10;;;;;;;;;;5061895;28;20213;-82
2022/04/22 07:05:14;;;;;;;12.80;9.33;;;;;;;;;;5061819;28;20261;-83
2022/04/22 07:07:41;;;;;;;11.13;9.63;;;;;;;;;;5055946;28;20193;-82
2022/04/22 07:10:09;;;;;;;11.73;9.33;;;;;;;;;;5072180;28;20244;-82
2022/04/22 07:12:37;;;;;;;10.93;8.27;;;;;;;;;;5057755;28;20574;-82
2022/04/22 07:15:05;;;;;;;8.90;8.00;;;;;;;;;;5077501;28;20256;-82
2022/04/22 07:17:33;;;;;;;9.63;7.80;;;;;;;;;;5076446;28;20202;-82
2022/04/22 07:20:02;;;;;;;8.70;7.43;;;;;;;;;;5068178;28;20689;-82
2022/04/22 07:22:30;;;;;;;8.57;7.60;;;;;;;;;;5076128;28;20221;-82
2022/04/22 07:24:57;;;;;;;8.03;7.23;;;;;;;;;;5061148;28;20234;-82
2022/04/22 07:27:27;;;;;;;8.57;7.67;;;;;;;;;;5069326;28;20205;-82
2022/04/22 07:29:55;;;;;;;8.93;7.53;;;;;;;;;;5071821;28;20259;-82
2022/04/22 07:32:23;;;;;;;7.83;7.03;;;;;;;;;;5073834;28;20593;-82
2022/04/22 07:34:50;;;;;;;8.10;7.03;;;;;;;;;;5074314;28;20236;-82
2022/04/22 07:37:17;;;;;;;7.60;6.80;;;;;;;;;;5075582;28;20209;-82
2022/04/22 07:39:45;;;;;;;7.27;6.27;;;;;;;;;;5074324;28;20262;-82
2022/04/22 07:42:15;;;;;;;7.73;6.93;;;;;;;;;;5074841;28;20226;-82
2022/04/22 07:47:32;;;;;;;7.37;6.30;;;;;;;;;;5075335;28;20199;-82
2022/04/22 07:50:00;;;;;;;8.03;6.90;;;;;;;;;;5074784;28;20236;-82
2022/04/22 07:52:28;;;;;;;9.77;7.13;;;;;;;;;;5075273;28;20700;-82
2022/04/22 07:54:55;;;;;;;7.33;6.10;;;;;;;;;;5074476;28;20233;-83
2022/04/22 07:57:22;;;;;;;7.83;6.43;;;;;;;;;;5075183;28;20209;-82
2022/04/22 07:59:49;;;;;;;6.60;5.90;;;;;;;;;;5074613;28;20236;-82
2022/04/22 08:02:17;;;;;;;7.10;6.40;;;;;;;;;;5075265;28;20225;-82
2022/04/22 08:04:45;;;;;;;7.10;6.40;;;;;;;;;;5073562;28;20777;-82
2022/04/22 08:07:12;;;;;;;7.07;6.27;;;;;;;;;;5075461;28;20592;-82
2022/04/22 08:09:40;;;;;;;9.83;6.97;;;;;;;;;;5074973;28;20229;-82
2022/04/22 08:12:08;;;;;;;6.93;6.23;;;;;;;;;;5075168;28;20221;-83
2022/04/22 08:14:35;;;;;;;8.00;6.17;;;;;;;;;;5074193;28;20237;-83
2022/04/22 08:17:02;;;;;;;7.50;6.20;;;;;;;;;;5075066;28;20193;-83
2022/04/22 08:19:29;;;;;;;6.23;5.63;;;;;;;;;;5074337;28;20232;-83
2022/04/22 08:21:58;;;;;;;6.83;6.03;;;;;;;;;;5074472;28;20702;-83
2022/04/22 08:24:25;;;;;;;7.03;6.30;;;;;;;;;;5075112;28;20253;-83
2022/04/22 08:26:53;;;;;;;7.07;6.30;;;;;;;;;;5074811;28;20201;-83
2022/04/22 08:29:20;;;;;;;6.57;5.93;;;;;;;;;;5075384;28;20201;-83
2022/04/22 08:31:47;;;;;;;6.30;5.70;;;;;;;;;;5074814;28;20221;-83
2022/04/22 08:34:14;;;;;;;5.97;5.30;;;;;;;;;;5074562;28;20236;-83
2022/04/22 08:36:43;;;;;;;6.60;5.93;;;;;;;;;;5074227;28;20216;-83
2022/04/22 08:39:12;;;;;;;7.07;6.25;;;;;;;;;;5074061;28;20209;-83
2022/04/22 08:41:39;;;;;;;6.03;5.43;;;;;;;;;;5074495;28;20231;-82
2022/04/22 08:44:07;;;;;;;6.80;5.28;;;;;;;;;;5073245;28;20205;-83
2022/04/22 08:52:05;;;;;;;5.82;5.32;;;;;;;;;;5074956;28;20797;-83
2022/04/22 08:54:35;;;;;;;6.95;5.93;;;;;;;;;;5073702;28;20225;-83
2022/04/22 08:57:03;;;;;;;6.25;5.65;;;;;;;;;;5074300;28;20189;-83
2022/04/22 08:59:30;;;;;;;6.80;5.55;;;;;;;;;;5073531;28;20681;-83
2022/04/22 09:01:57;;;;;;;6.28;5.22;;;;;;;;;;5074028;28;20225;-84
2022/04/22 09:04:26;;;;;;;6.07;5.32;;;;;;;;;;5074130;28;20233;-83
2022/04/22 09:06:54;;;;;;;5.32;4.85;;;;;;;;;;5074364;28;20308;-83
2022/04/22 09:09:21;;;;;;;7.88;5.30;;;;;;;;;;5073275;28;20641;-83
2022/04/22 09:11:51;;;;;;;6.75;5.03;;;;;;;;;;5074061;28;20647;-83
2022/04/22 09:14:19;;;;;;;8.57;5.95;;;;;;;;;;5073337;28;20278;-84
2022/04/22 09:16:46;;;;;;;6.28;5.43;;;;;;;;;;5072527;28;20213;-84
2022/04/22 09:19:18;;;;;;;5.03;4.53;;;;;;;;;;5072925;28;20578;-84
2022/04/22 09:21:46;;;;;;;5.57;5.07;;;;;;;;;;5073792;28;20225;-83
2022/04/22 09:24:14;;;;;;;5.43;4.93;;;;;;;;;;5072974;28;20209;-84
2022/04/22 09:26:41;;;;;;;5.40;4.93;;;;;;;;;;5073673;28;20268;-83
2022/04/22 09:29:11;;;;;;;5.10;4.70;;;;;;;;;;5072850;28;20634;-84
2022/04/22 09:31:48;;;;;;;5.38;4.88;;;;;;;;;;5073781;28;20596;-84
2022/04/22 09:34:15;;;;;;;4.97;4.47;;;;;;;;;;5072640;28;20217;-84
2022/04/22 09:44:59;;;;;;;5.70;4.45;;;;;;;;;;5072557;28;20224;-84
2022/04/22 09:47:27;;;;;;;4.90;4.35;;;;;;;;;;5073955;28;20647;-84
2022/04/22 09:49:54;;;;;;;5.53;4.93;;;;;;;;;;5072731;28;20758;-84
2022/04/22 09:52:28;;;;;;;5.50;4.40;;;;;;;;;;5073461;28;20229;-84
2022/04/22 09:54:59;;;;;;;5.65;4.95;;;;;;;;;;5072318;28;20237;-85
2022/04/22 09:57:26;;;;;;;5.18;4.68;;;;;;;;;;5075205;28;20192;-84
2022/04/22 09:59:54;;;;;;;4.90;4.50;;;;;;;;;;5074658;28;20850;-84
2022/04/22 10:02:25;;;;;;;5.43;4.53;;;;;;;;;;5073210;28;20229;-84
2022/04/22 10:04:54;;;;;;;5.07;4.68;;;;;;;;;;5072141;28;20229;-84
2022/04/22 10:07:22;;;;;;;6.30;4.30;;;;;;;;;;5074540;28;20205;-85
2022/04/22 10:09:53;;;;;;;4.68;4.28;;;;;;;;;;5073612;28;20233;-85
2022/04/22 10:12:20;;;;;;;4.70;4.30;;;;;;;;;;5074220;28;20230;-85
2022/04/22 10:14:50;;;;;;;5.07;4.57;;;;;;;;;;5074801;28;20228;-85
2022/04/22 10:17:18;;;;;;;4.90;4.40;;;;;;;;;;5076666;28;20196;-85
2022/04/22 10:19:47;;;;;;;5.85;4.60;;;;;;;;;;5083011;28;20282;-85
2022/04/22 10:22:15;;;;;;;4.93;4.43;;;;;;;;;;5079178;28;20233;-85
2022/04/22 10:24:42;;;;;;;4.85;4.45;;;;;;;;;;5073656;28;20279;-85
2022/04/22 10:27:10;;;;;;;4.57;4.18;;;;;;;;;;5073561;28;20683;-85
2022/04/22 10:29:39;;;;;;;5.07;4.68;;;;;;;;;;5072841;28;20708;-85
2022/04/22 10:32:07;;;;;;;6.85;4.55;;;;;;;;;;5074009;28;20370;-85
2022/04/22 10:34:40;;;;;;;7.22;4.70;;;;;;;;;;5080164;28;20240;-85
2022/04/22 10:37:16;;;;;;;5.40;4.90;;;;;;;;;;5079613;28;20589;-85
2022/04/22 10:39:44;;;;;;;4.53;4.13;;;;;;;;;;5072019;28;20229;-86
2022/04/22 10:42:15;;;;;;;5.15;4.35;;;;;;;;;;5052852;28;20914;-85
2022/04/22 10:47:44;;;;;;;4.80;4.40;;;;;;;;;;5051836;28;20289;-86
2022/04/22 10:50:25;;;;;;;5.53;4.38;;;;;;;;;;5070586;28;20236;-86
2022/04/22 10:53:03;;;;;;;5.97;4.47;;;;;;;;;;5078200;28;20225;-86
2022/04/22 10:55:31;;;;;;;4.88;4.40;;;;;;;;;;5087328;28;20254;-87
2022/04/22 10:58:16;;;;;;;4.55;4.07;;;;;;;;;;5091578;28;20246;-84
2022/04/22 11:00:44;;;;;;;5.22;4.25;;;;;;;;;;5081934;28;20244;-83
2022/04/22 11:03:14;;;;;;;4.85;4.45;;;;;;;;;;5083596;28;20271;-83
2022/04/22 11:05:46;;;;;;;4.47;4.07;;;;;;;;;;5078739;28;20772;-83
2022/04/22 11:08:24;;;;;;;4.53;4.13;;;;;;;;;;5083041;28;20244;-84
2022/04/22 11:10:59;;;;;;;4.47;4.07;;;;;;;;;;5088454;28;20248;-84
2022/04/22 11:13:30;;;;;;;4.97;4.25;;;;;;;;;;5086946;28;20259;-84
2022/04/22 11:16:00;;;;;;;8.35;3.95;;;;;;;;;;5078067;28;20233;-84
2022/04/22 11:18:27;;;;;;;5.43;4.10;;;;;;;;;;5076823;28;20205;-83
2022/04/22 11:21:00;;;;;;;4.22;3.92;;;;;;;;;;5074600;28;20719;-83
2022/04/22 11:23:35;;;;;;;5.88;4.40;;;;;;;;;;5073609;28;20287;-83
2022/04/22 11:26:02;;;;;;;4.13;3.83;;;;;;;;;;5073900;28;20233;-83
2022/04/22 11:28:32;;;;;;;4.00;3.70;;;;;;;;;;5072741;28;20197;-84
2022/04/22 11:31:00;;;;;;;4.00;3.70;;;;;;;;;;5073547;28;20735;-83
2022/04/22 11:33:28;;;;;;;3.78;3.47;;;;;;;;;;5073152;28;20736;-83
2022/04/22 11:35:57;;;;;;;4.40;4.00;;;;;;;;;;5071685;28;20315;-84
2022/04/22 11:38:24;;;;;;;4.47;3.97;;;;;;;;;;5074041;28;20190;-83
2022/04/22 11:40:53;;;;;;;4.32;3.80;;;;;;;;;;5074747;28;20233;-83
2022/04/22 11:43:20;;;;;;;4.32;3.92;;;;;;;;;;5077824;28;20226;-83
2022/04/22 11:45:48;;;;;;;5.07;4.30;;;;;;;;;;5077376;28;20253;-81
2022/04/22 11:48:15;;;;;;;12.88;4.95;;;;;;;;;;5076959;28;20216;-82
2022/04/22 11:50:43;;;;;;;4.32;3.92;;;;;;;;;;5075213;28;20585;-84
2022/04/22 11:53:14;;;;;;;4.18;3.88;;;;;;;;;;5078705;28;20251;-84
2022/04/22 11:55:43;;;;;;;4.55;3.67;;;;;;;;;;5079457;28;20273;-85
2022/04/22 11:58:11;;;;;;;3.53;3.22;;;;;;;;;;5078782;28;20668;-84
2022/04/22 12:06:09;;;;;;;4.07;3.67;;;;;;;;;;5068081;28;20321;-80
2022/04/22 12:08:36;;;;;;;3.80;3.50;;;;;;;;;;5079152;28;20205;-80
2022/04/22 12:11:03;;;;;;;4.50;3.85;;;;;;;;;;5080761;28;20232;-80
2022/04/22 12:13:31;;;;;;;4.18;3.67;;;;;;;;;;5075672;28;20206;-80
2022/04/22 12:16:01;;;;;;;11.07;3.55;;;;;;;;;;5061581;28;20316;-80
2022/04/22 12:18:30;;;;;;;3.60;3.30;;;;;;;;;;5063448;28;20236;-79
2022/04/22 12:20:57;;;;;;;4.15;3.75;;;;;;;;;;5063077;28;20234;-80
2022/04/22 12:23:25;;;;;;;3.83;3.53;;;;;;;;;;5063743;28;20248;-79
2022/04/22 12:25:56;;;;;;;4.22;3.60;;;;;;;;;;5062552;28;20651;-79
2022/04/22 12:28:24;;;;;;;4.28;3.00;;;;;;;;;;5063838;28;20682;-80
2022/04/22 12:30:53;;;;;;;3.75;3.45;;;;;;;;;;5063020;28;20674;-80
2022/04/22 12:33:21;;;;;;;4.25;3.30;;;;;;;;;;5064833;28;20272;-80
2022/04/22 12:35:50;;;;;;;3.60;3.30;;;;;;;;;;5090207;28;20234;-81
2022/04/22 12:38:18;;;;;;;3.35;3.08;;;;;;;;;;5084793;28;20209;-80
2022/04/22 12:40:49;;;;;;;5.32;4.10;;;;;;;;;;5081608;28;20254;-80
2022/04/22 12:43:28;;;;;;;3.80;3.47;;;;;;;;;;5075941;28;20259;-89
2022/04/22 12:54:12;;;;;;;4.00;3.60;;;;;;;;;;5068382;28;20212;-84
2022/04/22 12:56:40;;;;;;;3.88;3.25;;;;;;;;;;5081147;28;20259;-85
2022/04/22 12:59:07;;;;;;;4.13;3.35;;;;;;;;;;5083831;28;20213;-85
2022/04/22 13:01:38;;;;;;;3.92;3.22;;;;;;;;;;5084023;28;20217;-84
2022/04/22 13:04:06;;;;;;;3.17;2.92;;;;;;;;;;5089170;28;20645;-84
2022/04/22 13:06:40;;;;;;;3.75;3.45;;;;;;;;;;5082523;28;20213;-84
2022/04/22 13:09:07;;;;;;;4.50;3.00;;;;;;;;;;5082886;28;20224;-85
2022/04/22 13:11:34;;;;;;;6.38;3.08;;;;;;;;;;5083144;28;20221;-86
2022/04/22 13:14:01;;;;;;;4.25;3.08;;;;;;;;;;5084262;28;20225;-87
2022/04/22 13:16:29;;;;;;;3.30;3.00;;;;;;;;;;5081495;28;20283;-86
2022/04/22 13:18:58;;;;;;;4.00;3.10;;;;;;;;;;5084516;28;20708;-85
2022/04/22 13:21:25;;;;;;;4.43;2.85;;;;;;;;;;5077532;28;20241;-84
2022/04/22 13:23:52;;;;;;;4.35;2.90;;;;;;;;;;5079067;28;20205;-86
2022/04/22 13:26:19;;;;;;;3.28;3.08;;;;;;;;;;5081745;28;20244;-86
2022/04/22 13:28:46;;;;;;;2.72;2.53;;;;;;;;;;5064855;28;20209;-85
2022/04/22 13:31:13;;;;;;;2.65;2.45;;;;;;;;;;5058530;28;20245;-85
2022/04/22 13:33:40;;;;;;;3.05;2.53;;;;;;;;;;5080137;28;20205;-84
2022/04/22 13:36:10;;;;;;;3.08;2.88;;;;;;;;;;5075317;28;20978;-85
2022/04/22 13:38:38;;;;;;;3.22;2.92;;;;;;;;;;5075360;28;20194;-85
2022/04/22 13:41:05;;;;;;;3.13;2.80;;;;;;;;;;5075330;28;20233;-85
2022/04/22 13:43:32;;;;;;;3.33;2.60;;;;;;;;;;5074955;28;20197;-85
2022/04/22 13:54:16;;;;;;;3.28;2.60;;;;;;;;;;5074728;28;20263;-85
2022/04/22 13:56:43;;;;;;;2.67;2.47;;;;;;;;;;5075653;28;20197;-85
2022/04/22 13:59:10;;;;;;;2.72;2.53;;;;;;;;;;5074629;28;20205;-85
2022/04/22 14:01:37;;;;;;;7.45;2.55;;;;;;;;;;5075618;28;20225;-84
2022/04/22 14:04:05;;;;;;;3.67;2.63;;;;;;;;;;5075567;28;20220;-85
2022/04/22 14:06:33;;;;;;;3.58;2.65;;;;;;;;;;5076107;28;20206;-86
2022/04/22 14:09:01;;;;;;;2.53;2.33;;;;;;;;;;5078481;28;20201;-86
2022/04/22 14:11:30;;;;;;;2.67;2.33;;;;;;;;;;5082635;28;20664;-85
2022/04/22 14:13:57;;;;;;;2.90;2.33;;;;;;;;;;5083837;28;20215;-85
2022/04/22 14:16:24;;;;;;;3.00;2.20;;;;;;;;;;5079147;28;20244;-85
2022/04/22 14:18:51;;;;;;;4.25;2.80;;;;;;;;;;5063106;28;20399;-86
2022/04/22 14:21:18;;;;;;;2.60;2.40;;;;;;;;;;5058322;28;20726;-86
2022/04/22 14:23:47;;;;;;;2.95;2.42;;;;;;;;;;5056037;28;20206;-85
2022/04/22 14:26:14;;;;;;;2.55;2.35;;;;;;;;;;5062439;28;20243;-86
2022/04/22 14:28:42;;;;;;;2.50;2.40;;;;;;;;;;5063406;28;20228;-86
2022/04/22 14:31:11;;;;;;;2.60;2.40;;;;;;;;;;5062135;28;20287;-86
2022/04/22 14:33:40;;;;;;;2.55;2.35;;;;;;;;;;5083496;28;20236;-86
2022/04/22 14:36:07;;;;;;;2.55;2.35;;;;;;;;;;5075827;28;20233;-86
2022/04/22 14:38:34;;;;;;;3.08;2.55;;;;;;;;;;5075688;28;20194;-86
2022/04/22 14:41:02;;;;;;;2.70;2.40;;;;;;;;;;5074308;28;20225;-86
2022/04/22 14:43:29;;;;;;;2.50;2.30;;;;;;;;;;5073612;28;20212;-86
2022/04/22 14:45:58;;;;;;;3.13;2.63;;;;;;;;;;5074805;28;20233;-86
2022/04/22 14:48:25;;;;;;;5.68;2.70;;;;;;;;;;5075190;28;20288;-87
2022/04/22 14:50:53;;;;;;;3.22;2.40;;;;;;;;;;5066976;28;20261;-87
2022/04/22 14:53:20;;;;;;;2.67;2.40;;;;;;;;;;5066672;28;20217;-87
2022/04/22 14:55:47;;;;;;;2.45;2.20;;;;;;;;;;5073854;28;20237;-87
2022/04/22 14:58:15;;;;;;;2.47;2.28;;;;;;;;;;5074759;28;20577;-87
2022/04/22 15:00:43;;;;;;;4.47;2.63;;;;;;;;;;5083610;28;20228;-87
2022/04/22 15:03:12;;;;;;;4.40;2.42;;;;;;;;;;5095485;28;20232;-87
2022/04/22 15:05:39;;;;;;;2.67;2.47;;;;;;;;;;5095011;28;20244;-86
2022/04/22 15:08:07;;;;;;;4.68;2.88;;;;;;;;;;5095377;28;20205;-87
2022/04/22 15:10:34;;;;;;;6.97;3.20;;;;;;;;;;5096264;28;20233;-87
2022/04/22 15:13:02;;;;;;;4.90;3.15;;;;;;;;;;5089352;28;20236;-87
2022/04/22 15:15:30;;;;;;;3.30;2.40;;;;;;;;;;5087334;28;20235;-84
2022/04/22 15:26:13;;;;;;;5.00;2.83;;;;;;;;;;5080781;28;20707;-88
2022/04/22 15:28:40;;;;;;;2.92;2.50;;;;;;;;;;5077979;28;20200;-88
2022/04/22 15:31:13;;;;;;;3.80;2.45;;;;;;;;;;5078949;28;20275;-89
2022/04/22 15:33:41;;;;;;;3.08;2.83;;;;;;;;;;5088293;28;20232;-88
2022/04/22 15:36:10;;;;;;;2.80;2.60;;;;;;;;;;5099878;28;20236;-88
2022/04/22 15:38:38;;;;;;;3.33;2.25;;;;;;;;;;5084314;28;20250;-89
2022/04/22 15:41:06;;;;;;;2.90;2.70;;;;;;;;;;5084752;28;20229;-88
2022/04/22 15:43:35;;;;;;;2.83;2.20;;;;;;;;;;5084388;28;20205;-89
2022/04/22 15:46:02;;;;;;;3.03;2.40;;;;;;;;;;5080260;28;20700;-88
2022/04/22 15:48:31;;;;;;;3.10;2.45;;;;;;;;;;5078634;28;20201;-87
2022/04/22 15:50:58;;;;;;;3.83;2.63;;;;;;;;;;5078673;28;20237;-86
2022/04/22 15:53:25;;;;;;;4.03;3.00;;;;;;;;;;5079296;28;20233;-86
2022/04/22 15:55:52;;;;;;;2.88;2.60;;;;;;;;;;5078990;28;20228;-86
2022/04/22 15:58:19;;;;;;;3.70;2.60;;;;;;;;;;5079756;28;20198;-84
2022/04/22 16:00:47;;;;;;;5.82;2.70;;;;;;;;;;5079100;28;20312;-83
2022/04/22 16:03:14;;;;;;;5.00;4.60;;;;;;;;;;5081420;28;20221;-82
2022/04/22 16:05:42;;;;;;;2.92;2.70;;;;;;;;;;5079820;28;20232;-81
2022/04/22 16:08:10;;;;;;;3.13;2.83;;;;;;;;;;5082078;28;20236;-83
2022/04/22 16:10:37;;;;;;;3.13;2.83;;;;;;;;;;5077953;28;20229;-84